sensor_id;sensor_type;location;lat;lon;timestamp;temperature;humidity
22532;DHT22;11432;46.924;7.114;2022-07-18T00:00:32;21.10;65.40
22532;DHT22;11432;46.924;7.114;2022-07-18T00:02:58;21.00;65.90
22532;DHT22;11432;46.924;7.114;2022-07-18T00:05:24;21.00;92.70
22532;DHT22;11432;46.924;7.114;2022-07-18T00:07:49;20.90;1.00
22532;DHT22;11432;46.924;7.114;2022-07-18T00:10:15;20.80;1.00
22532;DHT22;11432;46.924;7.114;2022-07-18T00:12:41;20.80;1.00
22532;DHT22;11432;46.924;7.114;2022-07-18T00:15:07;20.80;1.00
22532;DHT22;11432;46.924;7.114;2022-07-18T00:17:35;20.70;1.00
22532;DHT22;11432;46.924;7.114;2022-07-18T00:20:03;20.60;1.00
22532;DHT22;11432;46.924;7.114;2022-07-18T00:22:29;20.50;1.00
22532;DHT22;11432;46.924;7.114;2022-07-18T00:24:54;20.50;1.00
22532;DHT22;11432;46.924;7.114;2022-07-18T00:27:20;20.40;1.00
22532;DHT22;11432;46.924;7.114;2022-07-18T00:29:46;20.40;1.00
22532;DHT22;11432;46.924;7.114;2022-07-18T00:32:11;20.40;1.00
22532;DHT22;11432;46.924;7.114;2022-07-18T00:34:37;20.30;1.00
22532;DHT22;11432;46.924;7.114;2022-07-18T00:37:03;20.30;99.90
22532;DHT22;11432;46.924;7.114;2022-07-18T00:39:28;20.20;99.90
22532;DHT22;11432;46.924;7.114;2022-07-18T00:41:54;20.20;99.90
22532;DHT22;11432;46.924;7.114;2022-07-18T00:44:24;20.20;99.90
22532;DHT22;11432;46.924;7.114;2022-07-18T00:46:51;20.20;99.90
22532;DHT22;11432;46.924;7.114;2022-07-18T00:49:17;20.10;99.90
22532;DHT22;11432;46.924;7.114;2022-07-18T00:51:43;20.00;99.90
22532;DHT22;11432;46.924;7.114;2022-07-18T00:54:08;19.90;1.00
22532;DHT22;11432;46.924;7.114;2022-07-18T00:56:34;19.90;1.00
22532;DHT22;11432;46.924;7.114;2022-07-18T00:59:00;19.80;1.00
22532;DHT22;11432;46.924;7.114;2022-07-18T01:01:25;19.70;1.00
22532;DHT22;11432;46.924;7.114;2022-07-18T01:04:14;19.70;1.00
22532;DHT22;11432;46.924;7.114;2022-07-18T01:06:40;19.70;1.00
22532;DHT22;11432;46.924;7.114;2022-07-18T01:09:06;19.80;1.00
22532;DHT22;11432;46.924;7.114;2022-07-18T01:11:33;19.80;1.00
22532;DHT22;11432;46.924;7.114;2022-07-18T01:14:00;19.80;1.00
22532;DHT22;11432;46.924;7.114;2022-07-18T01:16:26;19.80;1.00
22532;DHT22;11432;46.924;7.114;2022-07-18T01:18:52;19.70;1.00
22532;DHT22;11432;46.924;7.114;2022-07-18T01:21:18;19.50;1.00
22532;DHT22;11432;46.924;7.114;2022-07-18T01:23:44;19.40;1.00
22532;DHT22;11432;46.924;7.114;2022-07-18T01:26:11;19.50;1.00
22532;DHT22;11432;46.924;7.114;2022-07-18T01:28:37;19.50;1.00
22532;DHT22;11432;46.924;7.114;2022-07-18T01:31:03;19.50;1.00
22532;DHT22;11432;46.924;7.114;2022-07-18T01:33:31;19.60;1.00
22532;DHT22;11432;46.924;7.114;2022-07-18T01:35:59;19.60;1.00
22532;DHT22;11432;46.924;7.114;2022-07-18T01:38:27;19.50;1.00
22532;DHT22;11432;46.924;7.114;2022-07-18T01:40:53;19.40;57.50
22532;DHT22;11432;46.924;7.114;2022-07-18T01:43:19;19.50;87.70
22532;DHT22;11432;46.924;7.114;2022-07-18T01:45:44;19.40;99.90
22532;DHT22;11432;46.924;7.114;2022-07-18T01:48:10;19.30;99.90
22532;DHT22;11432;46.924;7.114;2022-07-18T01:50:35;19.40;99.90
22532;DHT22;11432;46.924;7.114;2022-07-18T01:53:01;19.40;99.90
22532;DHT22;11432;46.924;7.114;2022-07-18T01:55:27;19.20;99.90
22532;DHT22;11432;46.924;7.114;2022-07-18T01:57:52;19.20;99.90
22532;DHT22;11432;46.924;7.114;2022-07-18T02:00:18;19.20;99.90
22532;DHT22;11432;46.924;7.114;2022-07-18T02:02:43;19.20;99.90
22532;DHT22;11432;46.924;7.114;2022-07-18T02:05:09;19.20;99.90
22532;DHT22;11432;46.924;7.114;2022-07-18T02:07:37;19.10;99.90
22532;DHT22;11432;46.924;7.114;2022-07-18T02:10:08;18.90;99.90
22532;DHT22;11432;46.924;7.114;2022-07-18T02:12:34;18.90;99.90
22532;DHT22;11432;46.924;7.114;2022-07-18T02:15:01;19.00;99.90
22532;DHT22;11432;46.924;7.114;2022-07-18T02:17:26;18.90;99.90
22532;DHT22;11432;46.924;7.114;2022-07-18T02:19:52;18.80;99.90
22532;DHT22;11432;46.924;7.114;2022-07-18T02:22:18;18.70;99.90
22532;DHT22;11432;46.924;7.114;2022-07-18T02:24:43;18.70;99.90
22532;DHT22;11432;46.924;7.114;2022-07-18T02:27:10;18.80;99.90
22532;DHT22;11432;46.924;7.114;2022-07-18T02:29:36;18.60;99.90
22532;DHT22;11432;46.924;7.114;2022-07-18T02:32:03;18.50;99.90
22532;DHT22;11432;46.924;7.114;2022-07-18T02:34:29;18.50;99.90
22532;DHT22;11432;46.924;7.114;2022-07-18T02:36:54;18.60;99.90
22532;DHT22;11432;46.924;7.114;2022-07-18T02:39:20;18.50;99.90
22532;DHT22;11432;46.924;7.114;2022-07-18T02:41:47;18.50;99.90
22532;DHT22;11432;46.924;7.114;2022-07-18T02:44:12;18.40;99.90
22532;DHT22;11432;46.924;7.114;2022-07-18T02:46:38;18.50;99.90
22532;DHT22;11432;46.924;7.114;2022-07-18T02:49:04;18.30;1.00
22532;DHT22;11432;46.924;7.114;2022-07-18T02:51:29;18.30;1.00
22532;DHT22;11432;46.924;7.114;2022-07-18T02:53:56;18.40;1.00
22532;DHT22;11432;46.924;7.114;2022-07-18T02:56:21;18.50;1.00
22532;DHT22;11432;46.924;7.114;2022-07-18T02:58:47;18.40;1.00
22532;DHT22;11432;46.924;7.114;2022-07-18T03:01:12;18.30;1.00
22532;DHT22;11432;46.924;7.114;2022-07-18T03:03:38;18.20;1.00
22532;DHT22;11432;46.924;7.114;2022-07-18T03:06:04;18.10;1.00
22532;DHT22;11432;46.924;7.114;2022-07-18T03:08:30;18.10;1.00
22532;DHT22;11432;46.924;7.114;2022-07-18T03:10:55;18.00;1.00
22532;DHT22;11432;46.924;7.114;2022-07-18T03:13:21;18.00;7.50
22532;DHT22;11432;46.924;7.114;2022-07-18T03:15:47;17.90;34.20
22532;DHT22;11432;46.924;7.114;2022-07-18T03:18:12;17.90;97.80
22532;DHT22;11432;46.924;7.114;2022-07-18T03:20:38;17.90;54.80
22532;DHT22;11432;46.924;7.114;2022-07-18T03:23:05;17.80;90.70
22532;DHT22;11432;46.924;7.114;2022-07-18T03:25:31;17.70;99.90
22532;DHT22;11432;46.924;7.114;2022-07-18T03:27:57;17.50;99.90
22532;DHT22;11432;46.924;7.114;2022-07-18T03:30:22;17.50;99.90
22532;DHT22;11432;46.924;7.114;2022-07-18T03:32:48;17.60;99.90
22532;DHT22;11432;46.924;7.114;2022-07-18T03:35:14;17.80;99.90
22532;DHT22;11432;46.924;7.114;2022-07-18T03:37:40;17.80;84.90
22532;DHT22;11432;46.924;7.114;2022-07-18T03:40:06;18.00;87.50
22532;DHT22;11432;46.924;7.114;2022-07-18T03:42:32;18.00;35.60
22532;DHT22;11432;46.924;7.114;2022-07-18T03:44:59;18.00;22.00
22532;DHT22;11432;46.924;7.114;2022-07-18T03:47:24;18.10;1.00
22532;DHT22;11432;46.924;7.114;2022-07-18T03:49:50;18.20;1.00
22532;DHT22;11432;46.924;7.114;2022-07-18T03:52:16;18.10;1.00
22532;DHT22;11432;46.924;7.114;2022-07-18T03:54:41;17.90;35.50
22532;DHT22;11432;46.924;7.114;2022-07-18T03:57:07;17.90;84.80
22532;DHT22;11432;46.924;7.114;2022-07-18T03:59:33;18.00;34.70
22532;DHT22;11432;46.924;7.114;2022-07-18T04:02:01;17.90;58.80
22532;DHT22;11432;46.924;7.114;2022-07-18T04:04:26;17.90;56.00
22532;DHT22;11432;46.924;7.114;2022-07-18T04:06:52;17.90;99.90
22532;DHT22;11432;46.924;7.114;2022-07-18T04:09:17;17.70;99.90
22532;DHT22;11432;46.924;7.114;2022-07-18T04:11:43;17.80;99.90
22532;DHT22;11432;46.924;7.114;2022-07-18T04:14:09;17.80;99.90
22532;DHT22;11432;46.924;7.114;2022-07-18T04:16:34;17.90;99.90
22532;DHT22;11432;46.924;7.114;2022-07-18T04:19:00;17.90;99.90
22532;DHT22;11432;46.924;7.114;2022-07-18T04:21:25;17.90;99.90
22532;DHT22;11432;46.924;7.114;2022-07-18T04:23:51;17.90;99.90
22532;DHT22;11432;46.924;7.114;2022-07-18T04:26:18;17.70;99.90
22532;DHT22;11432;46.924;7.114;2022-07-18T04:28:44;17.70;99.90
22532;DHT22;11432;46.924;7.114;2022-07-18T04:31:10;17.70;99.90
22532;DHT22;11432;46.924;7.114;2022-07-18T04:33:35;17.60;99.90
22532;DHT22;11432;46.924;7.114;2022-07-18T04:36:01;17.60;99.90
22532;DHT22;11432;46.924;7.114;2022-07-18T04:38:27;17.50;99.90
22532;DHT22;11432;46.924;7.114;2022-07-18T04:40:54;17.30;99.90
22532;DHT22;11432;46.924;7.114;2022-07-18T04:43:20;17.40;99.90
22532;DHT22;11432;46.924;7.114;2022-07-18T04:45:45;17.60;99.90
22532;DHT22;11432;46.924;7.114;2022-07-18T04:48:11;17.80;99.90
22532;DHT22;11432;46.924;7.114;2022-07-18T04:50:36;18.00;99.90
22532;DHT22;11432;46.924;7.114;2022-07-18T04:53:02;17.90;99.90
22532;DHT22;11432;46.924;7.114;2022-07-18T04:55:28;17.90;99.90
22532;DHT22;11432;46.924;7.114;2022-07-18T04:57:54;17.90;99.90
22532;DHT22;11432;46.924;7.114;2022-07-18T05:00:23;17.90;99.90
22532;DHT22;11432;46.924;7.114;2022-07-18T05:02:50;18.00;99.90
22532;DHT22;11432;46.924;7.114;2022-07-18T05:05:17;17.90;99.90
22532;DHT22;11432;46.924;7.114;2022-07-18T05:07:44;17.80;99.90
22532;DHT22;11432;46.924;7.114;2022-07-18T05:10:11;18.00;99.90
22532;DHT22;11432;46.924;7.114;2022-07-18T05:12:39;18.10;99.90
22532;DHT22;11432;46.924;7.114;2022-07-18T05:15:09;18.10;99.90
22532;DHT22;11432;46.924;7.114;2022-07-18T05:17:35;18.40;99.90
22532;DHT22;11432;46.924;7.114;2022-07-18T05:20:01;18.60;99.90
22532;DHT22;11432;46.924;7.114;2022-07-18T05:22:28;18.60;99.90
22532;DHT22;11432;46.924;7.114;2022-07-18T05:24:54;18.70;99.90
22532;DHT22;11432;46.924;7.114;2022-07-18T05:27:19;19.00;99.90
22532;DHT22;11432;46.924;7.114;2022-07-18T05:29:45;19.10;1.00
22532;DHT22;11432;46.924;7.114;2022-07-18T05:32:10;19.40;1.00
22532;DHT22;11432;46.924;7.114;2022-07-18T05:34:37;19.60;1.00
22532;DHT22;11432;46.924;7.114;2022-07-18T05:37:03;19.40;1.00
22532;DHT22;11432;46.924;7.114;2022-07-18T05:39:29;19.30;1.00
22532;DHT22;11432;46.924;7.114;2022-07-18T05:41:54;19.50;1.00
22532;DHT22;11432;46.924;7.114;2022-07-18T05:44:20;19.50;1.00
22532;DHT22;11432;46.924;7.114;2022-07-18T05:46:49;19.60;1.00
22532;DHT22;11432;46.924;7.114;2022-07-18T05:49:15;19.80;1.00
22532;DHT22;11432;46.924;7.114;2022-07-18T05:51:41;19.70;99.90
22532;DHT22;11432;46.924;7.114;2022-07-18T05:54:06;19.70;99.90
22532;DHT22;11432;46.924;7.114;2022-07-18T05:56:32;19.60;1.00
22532;DHT22;11432;46.924;7.114;2022-07-18T05:58:57;19.50;1.00
22532;DHT22;11432;46.924;7.114;2022-07-18T06:01:23;19.40;1.00
22532;DHT22;11432;46.924;7.114;2022-07-18T06:03:49;19.40;1.00
22532;DHT22;11432;46.924;7.114;2022-07-18T06:06:15;19.40;1.00
22532;DHT22;11432;46.924;7.114;2022-07-18T06:08:41;19.30;1.00
22532;DHT22;11432;46.924;7.114;2022-07-18T06:11:08;19.40;1.00
22532;DHT22;11432;46.924;7.114;2022-07-18T06:13:38;19.40;1.00
22532;DHT22;11432;46.924;7.114;2022-07-18T06:16:05;19.40;1.00
22532;DHT22;11432;46.924;7.114;2022-07-18T06:18:31;19.40;1.00
22532;DHT22;11432;46.924;7.114;2022-07-18T06:20:57;19.40;1.00
22532;DHT22;11432;46.924;7.114;2022-07-18T06:23:22;19.40;1.00
22532;DHT22;11432;46.924;7.114;2022-07-18T06:25:48;19.40;1.00
22532;DHT22;11432;46.924;7.114;2022-07-18T06:28:14;19.50;99.90
22532;DHT22;11432;46.924;7.114;2022-07-18T06:30:39;19.50;99.90
22532;DHT22;11432;46.924;7.114;2022-07-18T06:33:05;19.50;99.90
22532;DHT22;11432;46.924;7.114;2022-07-18T06:35:33;19.60;99.90
22532;DHT22;11432;46.924;7.114;2022-07-18T06:37:59;19.80;99.90
22532;DHT22;11432;46.924;7.114;2022-07-18T06:40:24;19.90;99.90
22532;DHT22;11432;46.924;7.114;2022-07-18T06:42:51;20.00;99.90
22532;DHT22;11432;46.924;7.114;2022-07-18T06:45:17;20.20;1.00
22532;DHT22;11432;46.924;7.114;2022-07-18T06:47:43;20.10;1.00
22532;DHT22;11432;46.924;7.114;2022-07-18T06:50:11;20.10;1.00
22532;DHT22;11432;46.924;7.114;2022-07-18T06:52:38;20.20;1.00
22532;DHT22;11432;46.924;7.114;2022-07-18T06:55:06;20.40;1.00
22532;DHT22;11432;46.924;7.114;2022-07-18T06:57:31;20.50;1.00
22532;DHT22;11432;46.924;7.114;2022-07-18T06:59:57;20.70;1.00
22532;DHT22;11432;46.924;7.114;2022-07-18T07:02:23;20.90;1.00
22532;DHT22;11432;46.924;7.114;2022-07-18T07:04:49;21.00;1.00
22532;DHT22;11432;46.924;7.114;2022-07-18T07:07:14;21.20;1.00
22532;DHT22;11432;46.924;7.114;2022-07-18T07:09:40;21.40;1.00
22532;DHT22;11432;46.924;7.114;2022-07-18T07:12:05;21.50;1.00
22532;DHT22;11432;46.924;7.114;2022-07-18T07:14:32;21.40;1.00
22532;DHT22;11432;46.924;7.114;2022-07-18T07:16:57;21.30;1.00
22532;DHT22;11432;46.924;7.114;2022-07-18T07:19:23;21.40;1.00
22532;DHT22;11432;46.924;7.114;2022-07-18T07:21:48;21.40;1.00
22532;DHT22;11432;46.924;7.114;2022-07-18T07:24:14;21.40;1.00
22532;DHT22;11432;46.924;7.114;2022-07-18T07:26:40;21.60;1.00
22532;DHT22;11432;46.924;7.114;2022-07-18T07:29:05;21.60;1.00
22532;DHT22;11432;46.924;7.114;2022-07-18T07:31:31;21.90;1.00
22532;DHT22;11432;46.924;7.114;2022-07-18T07:36:37;22.10;1.00
22532;DHT22;11432;46.924;7.114;2022-07-18T07:39:02;22.10;1.00
22532;DHT22;11432;46.924;7.114;2022-07-18T07:41:28;22.10;1.00
22532;DHT22;11432;46.924;7.114;2022-07-18T07:43:54;22.30;1.00
22532;DHT22;11432;46.924;7.114;2022-07-18T07:46:19;22.40;1.00
22532;DHT22;11432;46.924;7.114;2022-07-18T07:48:45;22.40;1.00
22532;DHT22;11432;46.924;7.114;2022-07-18T07:51:13;22.50;1.00
22532;DHT22;11432;46.924;7.114;2022-07-18T07:53:39;22.80;1.00
22532;DHT22;11432;46.924;7.114;2022-07-18T07:56:04;23.00;1.00
22532;DHT22;11432;46.924;7.114;2022-07-18T07:58:30;23.10;1.00
22532;DHT22;11432;46.924;7.114;2022-07-18T08:00:56;23.10;1.00
22532;DHT22;11432;46.924;7.114;2022-07-18T08:03:21;23.40;1.00
22532;DHT22;11432;46.924;7.114;2022-07-18T08:05:48;23.60;1.00
22532;DHT22;11432;46.924;7.114;2022-07-18T08:08:15;23.80;1.00
22532;DHT22;11432;46.924;7.114;2022-07-18T08:10:41;23.80;1.00
22532;DHT22;11432;46.924;7.114;2022-07-18T08:13:07;23.80;1.00
22532;DHT22;11432;46.924;7.114;2022-07-18T08:15:33;23.80;1.00
22532;DHT22;11432;46.924;7.114;2022-07-18T08:17:59;23.80;1.00
22532;DHT22;11432;46.924;7.114;2022-07-18T08:20:25;23.70;1.00
22532;DHT22;11432;46.924;7.114;2022-07-18T08:23:05;23.70;1.00
22532;DHT22;11432;46.924;7.114;2022-07-18T08:25:37;23.80;1.00
22532;DHT22;11432;46.924;7.114;2022-07-18T08:28:03;23.90;1.00
22532;DHT22;11432;46.924;7.114;2022-07-18T08:30:30;23.90;1.00
22532;DHT22;11432;46.924;7.114;2022-07-18T08:32:56;23.90;1.00
22532;DHT22;11432;46.924;7.114;2022-07-18T08:35:22;24.00;1.00
22532;DHT22;11432;46.924;7.114;2022-07-18T08:37:47;24.10;1.00
22532;DHT22;11432;46.924;7.114;2022-07-18T08:40:13;24.20;1.00
22532;DHT22;11432;46.924;7.114;2022-07-18T08:42:40;24.20;1.00
22532;DHT22;11432;46.924;7.114;2022-07-18T08:45:06;24.40;1.00
22532;DHT22;11432;46.924;7.114;2022-07-18T08:47:33;24.50;1.00
22532;DHT22;11432;46.924;7.114;2022-07-18T08:49:59;24.60;1.00
22532;DHT22;11432;46.924;7.114;2022-07-18T08:52:27;24.70;1.00
22532;DHT22;11432;46.924;7.114;2022-07-18T08:54:54;24.90;1.00
22532;DHT22;11432;46.924;7.114;2022-07-18T08:57:20;25.10;1.00
22532;DHT22;11432;46.924;7.114;2022-07-18T08:59:46;25.40;1.00
22532;DHT22;11432;46.924;7.114;2022-07-18T09:02:12;25.40;1.00
22532;DHT22;11432;46.924;7.114;2022-07-18T09:04:40;25.30;1.00
22532;DHT22;11432;46.924;7.114;2022-07-18T09:07:07;25.30;1.00
22532;DHT22;11432;46.924;7.114;2022-07-18T09:09:37;25.20;1.00
22532;DHT22;11432;46.924;7.114;2022-07-18T09:12:06;25.30;1.00
22532;DHT22;11432;46.924;7.114;2022-07-18T09:17:01;25.50;1.00
22532;DHT22;11432;46.924;7.114;2022-07-18T09:19:27;25.60;1.00
22532;DHT22;11432;46.924;7.114;2022-07-18T09:21:53;25.80;1.00
22532;DHT22;11432;46.924;7.114;2022-07-18T09:24:18;26.10;1.00
22532;DHT22;11432;46.924;7.114;2022-07-18T09:26:44;26.30;1.00
22532;DHT22;11432;46.924;7.114;2022-07-18T09:29:15;26.50;1.00
22532;DHT22;11432;46.924;7.114;2022-07-18T09:31:49;26.80;1.00
22532;DHT22;11432;46.924;7.114;2022-07-18T09:34:14;27.00;1.00
22532;DHT22;11432;46.924;7.114;2022-07-18T09:36:56;27.20;1.00
22532;DHT22;11432;46.924;7.114;2022-07-18T09:39:23;27.20;1.00
22532;DHT22;11432;46.924;7.114;2022-07-18T09:41:49;27.20;1.00
22532;DHT22;11432;46.924;7.114;2022-07-18T09:44:16;27.40;1.00
22532;DHT22;11432;46.924;7.114;2022-07-18T09:47:01;27.50;1.00
22532;DHT22;11432;46.924;7.114;2022-07-18T09:49:31;27.40;1.00
22532;DHT22;11432;46.924;7.114;2022-07-18T09:52:06;27.60;1.00
22532;DHT22;11432;46.924;7.114;2022-07-18T09:54:36;27.80;1.00
22532;DHT22;11432;46.924;7.114;2022-07-18T09:57:02;27.80;1.00
22532;DHT22;11432;46.924;7.114;2022-07-18T09:59:28;28.00;1.00
22532;DHT22;11432;46.924;7.114;2022-07-18T10:01:54;28.00;1.00
22532;DHT22;11432;46.924;7.114;2022-07-18T10:04:20;28.00;1.00
22532;DHT22;11432;46.924;7.114;2022-07-18T10:06:46;28.30;1.00
22532;DHT22;11432;46.924;7.114;2022-07-18T10:09:11;28.60;1.00
22532;DHT22;11432;46.924;7.114;2022-07-18T10:11:37;28.40;1.00
22532;DHT22;11432;46.924;7.114;2022-07-18T10:14:03;28.70;1.00
22532;DHT22;11432;46.924;7.114;2022-07-18T10:16:29;29.00;1.00
22532;DHT22;11432;46.924;7.114;2022-07-18T10:18:55;29.00;1.00
22532;DHT22;11432;46.924;7.114;2022-07-18T10:21:20;29.10;1.00
22532;DHT22;11432;46.924;7.114;2022-07-18T10:23:49;29.00;1.00
22532;DHT22;11432;46.924;7.114;2022-07-18T10:26:17;29.00;1.00
22532;DHT22;11432;46.924;7.114;2022-07-18T10:29:14;29.00;1.00
22532;DHT22;11432;46.924;7.114;2022-07-18T10:31:59;28.40;1.00
22532;DHT22;11432;46.924;7.114;2022-07-18T10:34:32;28.30;1.00
22532;DHT22;11432;46.924;7.114;2022-07-18T10:39:36;29.00;1.00
22532;DHT22;11432;46.924;7.114;2022-07-18T10:47:04;29.30;1.00
22532;DHT22;11432;46.924;7.114;2022-07-18T11:00:32;29.50;1.00
22532;DHT22;11432;46.924;7.114;2022-07-18T11:03:10;29.90;1.00
22532;DHT22;11432;46.924;7.114;2022-07-18T11:05:48;30.70;1.00
22532;DHT22;11432;46.924;7.114;2022-07-18T11:08:15;30.80;1.00
22532;DHT22;11432;46.924;7.114;2022-07-18T11:21:26;31.00;1.00
22532;DHT22;11432;46.924;7.114;2022-07-18T11:26:22;31.30;1.00
22532;DHT22;11432;46.924;7.114;2022-07-18T11:28:50;31.20;1.00
22532;DHT22;11432;46.924;7.114;2022-07-18T11:31:21;31.60;1.00
22532;DHT22;11432;46.924;7.114;2022-07-18T11:33:48;31.70;1.00
22532;DHT22;11432;46.924;7.114;2022-07-18T11:36:17;31.60;1.00
22532;DHT22;11432;46.924;7.114;2022-07-18T11:41:13;32.00;1.00
22532;DHT22;11432;46.924;7.114;2022-07-18T11:43:39;31.90;1.00
22532;DHT22;11432;46.924;7.114;2022-07-18T11:46:07;32.30;1.00
22532;DHT22;11432;46.924;7.114;2022-07-18T11:48:34;32.50;1.00
22532;DHT22;11432;46.924;7.114;2022-07-18T11:51:00;32.30;1.00
22532;DHT22;11432;46.924;7.114;2022-07-18T11:53:26;32.30;1.00
22532;DHT22;11432;46.924;7.114;2022-07-18T11:55:53;32.50;1.00
22532;DHT22;11432;46.924;7.114;2022-07-18T11:58:19;32.50;1.00
22532;DHT22;11432;46.924;7.114;2022-07-18T12:00:46;32.60;1.00
22532;DHT22;11432;46.924;7.114;2022-07-18T12:03:20;32.50;1.00
22532;DHT22;11432;46.924;7.114;2022-07-18T12:05:51;32.60;1.00
22532;DHT22;11432;46.924;7.114;2022-07-18T12:08:39;32.60;1.00
22532;DHT22;11432;46.924;7.114;2022-07-18T12:11:27;32.80;1.00
22532;DHT22;11432;46.924;7.114;2022-07-18T12:14:01;33.30;1.00
22532;DHT22;11432;46.924;7.114;2022-07-18T12:18:58;33.30;1.00
22532;DHT22;11432;46.924;7.114;2022-07-18T12:21:37;33.50;1.00
22532;DHT22;11432;46.924;7.114;2022-07-18T12:24:30;33.50;1.00
22532;DHT22;11432;46.924;7.114;2022-07-18T12:32:56;33.40;1.00
22532;DHT22;11432;46.924;7.114;2022-07-18T12:35:29;33.50;1.00
22532;DHT22;11432;46.924;7.114;2022-07-18T12:37:58;33.50;1.00
22532;DHT22;11432;46.924;7.114;2022-07-18T12:40:47;34.00;1.00
22532;DHT22;11432;46.924;7.114;2022-07-18T12:43:16;34.00;1.00
22532;DHT22;11432;46.924;7.114;2022-07-18T12:45:47;34.00;1.00
22532;DHT22;11432;46.924;7.114;2022-07-18T12:48:13;34.50;1.00
22532;DHT22;11432;46.924;7.114;2022-07-18T12:50:40;34.30;1.00
22532;DHT22;11432;46.924;7.114;2022-07-18T12:53:06;34.90;1.00
22532;DHT22;11432;46.924;7.114;2022-07-18T12:55:31;34.80;1.00
22532;DHT22;11432;46.924;7.114;2022-07-18T12:57:57;35.10;1.00
22532;DHT22;11432;46.924;7.114;2022-07-18T13:00:23;35.50;1.00
22532;DHT22;11432;46.924;7.114;2022-07-18T13:02:49;35.50;1.00
22532;DHT22;11432;46.924;7.114;2022-07-18T13:05:14;35.90;1.00
22532;DHT22;11432;46.924;7.114;2022-07-18T13:07:40;36.50;1.00
22532;DHT22;11432;46.924;7.114;2022-07-18T13:10:06;37.10;1.00
22532;DHT22;11432;46.924;7.114;2022-07-18T13:12:32;38.00;1.00
22532;DHT22;11432;46.924;7.114;2022-07-18T13:14:58;37.20;1.00
22532;DHT22;11432;46.924;7.114;2022-07-18T13:17:24;37.00;1.00
22532;DHT22;11432;46.924;7.114;2022-07-18T13:19:49;37.20;1.00
22532;DHT22;11432;46.924;7.114;2022-07-18T13:22:16;37.40;1.00
22532;DHT22;11432;46.924;7.114;2022-07-18T13:24:41;37.10;1.00
22532;DHT22;11432;46.924;7.114;2022-07-18T13:27:07;37.80;1.00
22532;DHT22;11432;46.924;7.114;2022-07-18T13:29:33;38.40;1.00
22532;DHT22;11432;46.924;7.114;2022-07-18T13:31:59;38.30;1.00
22532;DHT22;11432;46.924;7.114;2022-07-18T13:34:26;38.10;1.00
22532;DHT22;11432;46.924;7.114;2022-07-18T13:36:52;38.60;1.00
22532;DHT22;11432;46.924;7.114;2022-07-18T13:39:19;38.80;1.00
22532;DHT22;11432;46.924;7.114;2022-07-18T13:41:47;38.50;1.00
22532;DHT22;11432;46.924;7.114;2022-07-18T13:44:13;38.90;1.00
22532;DHT22;11432;46.924;7.114;2022-07-18T13:46:39;38.70;1.00
22532;DHT22;11432;46.924;7.114;2022-07-18T13:49:10;38.70;1.00
22532;DHT22;11432;46.924;7.114;2022-07-18T13:51:37;39.10;1.00
22532;DHT22;11432;46.924;7.114;2022-07-18T13:54:04;39.20;1.00
22532;DHT22;11432;46.924;7.114;2022-07-18T13:56:30;38.90;1.00
22532;DHT22;11432;46.924;7.114;2022-07-18T13:58:56;38.60;1.00
22532;DHT22;11432;46.924;7.114;2022-07-18T14:01:22;38.10;1.00
22532;DHT22;11432;46.924;7.114;2022-07-18T14:03:48;38.50;1.00
22532;DHT22;11432;46.924;7.114;2022-07-18T14:06:13;38.50;1.00
22532;DHT22;11432;46.924;7.114;2022-07-18T14:08:39;38.50;1.00
22532;DHT22;11432;46.924;7.114;2022-07-18T14:11:06;39.00;1.00
22532;DHT22;11432;46.924;7.114;2022-07-18T14:13:32;38.60;1.00
22532;DHT22;11432;46.924;7.114;2022-07-18T14:15:58;39.30;1.00
22532;DHT22;11432;46.924;7.114;2022-07-18T14:18:24;39.00;1.00
22532;DHT22;11432;46.924;7.114;2022-07-18T14:20:49;39.50;1.00
22532;DHT22;11432;46.924;7.114;2022-07-18T14:23:15;39.80;1.00
22532;DHT22;11432;46.924;7.114;2022-07-18T14:25:40;40.10;1.00
22532;DHT22;11432;46.924;7.114;2022-07-18T14:28:06;40.40;1.00
22532;DHT22;11432;46.924;7.114;2022-07-18T14:30:32;39.80;1.00
22532;DHT22;11432;46.924;7.114;2022-07-18T14:32:57;39.70;1.00
22532;DHT22;11432;46.924;7.114;2022-07-18T14:35:23;40.10;1.00
22532;DHT22;11432;46.924;7.114;2022-07-18T14:37:49;40.40;1.00
22532;DHT22;11432;46.924;7.114;2022-07-18T14:40:16;39.40;1.00
22532;DHT22;11432;46.924;7.114;2022-07-18T14:42:41;39.60;1.00
22532;DHT22;11432;46.924;7.114;2022-07-18T14:45:08;39.50;1.00
22532;DHT22;11432;46.924;7.114;2022-07-18T14:47:33;39.90;1.00
22532;DHT22;11432;46.924;7.114;2022-07-18T14:50:02;40.10;1.00
22532;DHT22;11432;46.924;7.114;2022-07-18T14:52:27;40.60;1.00
22532;DHT22;11432;46.924;7.114;2022-07-18T14:54:53;40.80;1.00
22532;DHT22;11432;46.924;7.114;2022-07-18T14:57:19;41.10;1.00
22532;DHT22;11432;46.924;7.114;2022-07-18T14:59:45;40.60;1.00
22532;DHT22;11432;46.924;7.114;2022-07-18T15:02:10;40.40;1.00
22532;DHT22;11432;46.924;7.114;2022-07-18T15:04:38;40.10;1.00
22532;DHT22;11432;46.924;7.114;2022-07-18T15:07:04;40.40;1.00
22532;DHT22;11432;46.924;7.114;2022-07-18T15:09:30;40.50;1.00
22532;DHT22;11432;46.924;7.114;2022-07-18T15:11:55;40.20;1.00
22532;DHT22;11432;46.924;7.114;2022-07-18T15:14:21;39.90;1.00
22532;DHT22;11432;46.924;7.114;2022-07-18T15:16:47;40.00;1.00
22532;DHT22;11432;46.924;7.114;2022-07-18T15:19:12;40.40;1.00
22532;DHT22;11432;46.924;7.114;2022-07-18T15:21:38;40.10;1.00
22532;DHT22;11432;46.924;7.114;2022-07-18T15:24:04;40.70;1.00
22532;DHT22;11432;46.924;7.114;2022-07-18T15:26:30;41.20;1.00
22532;DHT22;11432;46.924;7.114;2022-07-18T15:28:55;41.30;1.00
22532;DHT22;11432;46.924;7.114;2022-07-18T15:31:21;40.60;1.00
22532;DHT22;11432;46.924;7.114;2022-07-18T15:33:47;40.50;1.00
22532;DHT22;11432;46.924;7.114;2022-07-18T15:36:13;40.50;1.00
22532;DHT22;11432;46.924;7.114;2022-07-18T15:38:39;40.20;1.00
22532;DHT22;11432;46.924;7.114;2022-07-18T15:41:08;40.40;1.00
22532;DHT22;11432;46.924;7.114;2022-07-18T15:43:35;40.00;1.00
22532;DHT22;11432;46.924;7.114;2022-07-18T15:46:01;40.20;1.00
22532;DHT22;11432;46.924;7.114;2022-07-18T15:48:27;40.60;1.00
22532;DHT22;11432;46.924;7.114;2022-07-18T15:50:52;40.90;1.00
22532;DHT22;11432;46.924;7.114;2022-07-18T15:53:18;40.00;1.00
22532;DHT22;11432;46.924;7.114;2022-07-18T15:55:43;40.20;1.00
22532;DHT22;11432;46.924;7.114;2022-07-18T15:58:09;40.20;1.00
22532;DHT22;11432;46.924;7.114;2022-07-18T16:00:35;40.00;1.00
22532;DHT22;11432;46.924;7.114;2022-07-18T16:03:00;40.60;1.00
22532;DHT22;11432;46.924;7.114;2022-07-18T16:05:26;40.70;1.00
22532;DHT22;11432;46.924;7.114;2022-07-18T16:07:52;41.00;1.00
22532;DHT22;11432;46.924;7.114;2022-07-18T16:10:18;41.00;1.00
22532;DHT22;11432;46.924;7.114;2022-07-18T16:12:44;40.80;1.00
22532;DHT22;11432;46.924;7.114;2022-07-18T16:15:10;40.60;1.00
22532;DHT22;11432;46.924;7.114;2022-07-18T16:17:36;40.30;1.00
22532;DHT22;11432;46.924;7.114;2022-07-18T16:20:02;40.10;1.00
22532;DHT22;11432;46.924;7.114;2022-07-18T16:22:28;40.00;1.00
22532;DHT22;11432;46.924;7.114;2022-07-18T16:24:53;40.10;1.00
22532;DHT22;11432;46.924;7.114;2022-07-18T16:27:19;40.20;1.00